Time;durP1;ratioP1;P1;durP2;ratioP2;P2;SDS_P1;SDS_P2;PMS_P1;PMS_P2;Temp;Humidity;BMP_temperature;BMP_pressure;BME280_temperature;BME280_humidity;BME280_pressure;Samples;Min_cycle;Max_cycle;Signal;HPM_P1;HPM_P2
2023/05/05 00:01:22;;;;;;;14.90;13.37;;;;;;;9.78;100.00;93175.69;5089283;28;20221;-71
2023/05/05 00:03:48;;;;;;;13.77;12.40;;;;;;;9.76;100.00;93167.34;5089558;28;20279;-71
2023/05/05 00:06:13;;;;;;;12.90;11.93;;;;;;;9.78;100.00;93165.28;5088680;28;20220;-71
2023/05/05 00:08:39;;;;;;;13.90;12.90;;;;;;;9.74;100.00;93159.00;5089518;28;20189;-71
2023/05/05 00:11:04;;;;;;;13.53;12.33;;;;;;;9.63;100.00;93136.56;5090408;28;20239;-72
2023/05/05 00:13:30;;;;;;;14.33;13.20;;;;;;;9.77;100.00;93166.28;5093146;28;20208;-71
2023/05/05 00:15:55;;;;;;;12.53;11.40;;;;;;;9.77;100.00;93162.94;5092707;28;20216;-72
2023/05/05 00:18:20;;;;;;;12.27;11.47;;;;;;;9.68;100.00;93151.44;5093010;28;20184;-70
2023/05/05 00:20:47;;;;;;;13.03;12.00;;;;;;;9.71;100.00;93163.97;5075131;28;20224;-72
2023/05/05 00:23:13;;;;;;;12.47;11.50;;;;;;;9.70;100.00;93165.00;5108997;28;20264;-71
2023/05/05 00:25:38;;;;;;;12.27;11.40;;;;;;;9.64;100.00;93166.81;5074523;28;20268;-71
2023/05/05 00:28:04;;;;;;;12.50;11.63;;;;;;;9.57;100.00;93162.91;5092809;28;20190;-72
2023/05/05 00:30:29;;;;;;;12.13;11.43;;;;;;;9.54;100.00;93168.63;5092200;28;20217;-72
2023/05/05 00:32:56;;;;;;;12.33;11.53;;;;;;;9.45;100.00;93164.94;5093079;28;20220;-71
2023/05/05 00:35:21;;;;;;;11.57;10.87;;;;;;;9.48;100.00;93157.41;5092131;28;20225;-71
2023/05/05 00:37:48;;;;;;;11.30;10.60;;;;;;;9.46;100.00;93156.09;5093069;28;20187;-70
2023/05/05 00:40:13;;;;;;;10.87;9.87;;;;;;;9.32;100.00;93158.41;5092343;28;20222;-71
2023/05/05 00:42:46;;;;;;;12.30;11.53;;;;;;;9.18;100.00;93165.13;5092532;28;20283;-71
2023/05/05 00:45:13;;;;;;;10.63;10.03;;;;;;;9.16;100.00;93156.00;5092169;28;20232;-71
2023/05/05 00:47:41;;;;;;;11.73;10.93;;;;;;;9.34;100.00;93163.34;5074882;28;20250;-71
2023/05/05 00:50:08;;;;;;;12.37;11.17;;;;;;;9.29;100.00;93165.97;5092635;28;20248;-72
2023/05/05 00:52:37;;;;;;;12.07;11.33;;;;;;;9.32;100.00;93165.44;5092209;28;20197;-72
2023/05/05 00:55:07;;;;;;;11.37;10.57;;;;;;;9.27;100.00;93150.59;5085747;28;20217;-71
2023/05/05 00:57:34;;;;;;;12.00;11.30;;;;;;;9.25;100.00;93159.69;5071867;28;20177;-71
2023/05/05 01:00:00;;;;;;;11.20;10.50;;;;;;;9.16;100.00;93167.22;5072160;28;20244;-71
2023/05/05 01:02:25;;;;;;;11.27;10.63;;;;;;;9.11;100.00;93171.63;5072152;28;20244;-71
2023/05/05 01:04:51;;;;;;;11.60;10.90;;;;;;;9.07;100.00;93162.75;5071700;28;20233;-71
2023/05/05 01:07:46;;;;;;;12.17;11.17;;;;;;;9.14;100.00;93163.28;5072636;28;20194;-71
2023/05/05 01:10:28;;;;;;;12.83;11.73;;;;;;;9.03;100.00;93161.69;5063385;28;20228;-71
2023/05/05 01:13:31;;;;;;;11.47;10.77;;;;;;;9.01;100.00;93169.75;5072000;28;20224;-72
2023/05/05 01:16:18;;;;;;;11.87;11.17;;;;;;;8.90;100.00;93167.38;5063399;28;20240;-71
2023/05/05 01:18:50;;;;;;;12.27;11.47;;;;;;;8.85;100.00;93149.13;5069747;28;20213;-71
2023/05/05 01:21:27;;;;;;;11.70;11.00;;;;;;;8.89;100.00;93144.97;5071109;28;20232;-71
2023/05/05 01:24:05;;;;;;;12.87;11.97;;;;;;;8.83;100.00;93146.00;5071870;28;20189;-71
2023/05/05 01:27:09;;;;;;;12.03;11.23;;;;;;;8.78;100.00;93156.41;5070939;28;20273;-71
2023/05/05 01:30:27;;;;;;;12.07;11.23;;;;;;;8.62;100.00;93150.34;5066361;28;20193;-71
2023/05/05 01:32:57;;;;;;;11.07;10.33;;;;;;;8.69;100.00;93152.69;5040658;28;20225;-71
2023/05/05 01:35:30;;;;;;;12.17;11.23;;;;;;;8.37;100.00;93107.78;5052860;28;20308;-70
2023/05/05 01:38:02;;;;;;;12.43;11.53;;;;;;;8.61;100.00;93143.56;5071772;28;20212;-71
2023/05/05 01:40:32;;;;;;;11.30;10.63;;;;;;;8.66;100.00;93146.19;5071206;28;20217;-71
2023/05/05 01:43:00;;;;;;;12.67;11.80;;;;;;;8.69;100.00;93139.69;5068271;28;21753;-69
2023/05/05 01:45:32;;;;;;;13.47;12.23;;;;;;;8.66;100.00;93142.78;5069851;28;20537;-72
2023/05/05 01:47:59;;;;;;;12.53;11.53;;;;;;;8.52;100.00;93120.88;5071494;28;20181;-71
2023/05/05 01:50:27;;;;;;;12.83;11.97;;;;;;;8.61;100.00;93133.16;5071007;28;20225;-72
2023/05/05 01:52:54;;;;;;;11.80;10.97;;;;;;;8.52;100.00;93128.66;5071178;28;20243;-71
2023/05/05 01:55:24;;;;;;;12.40;11.70;;;;;;;8.70;100.00;93138.66;5053183;28;20219;-71
2023/05/05 01:57:50;;;;;;;11.90;11.13;;;;;;;8.66;100.00;93127.19;5071323;28;20193;-72
2023/05/05 02:00:18;;;;;;;11.87;11.17;;;;;;;8.79;100.00;93126.72;5070801;28;20239;-72
2023/05/05 02:02:48;;;;;;;12.57;11.77;;;;;;;8.71;100.00;93128.00;5070859;28;20188;-72
2023/05/05 02:05:18;;;;;;;11.07;10.37;;;;;;;8.61;100.00;93133.16;5070989;28;20237;-72
2023/05/05 02:07:44;;;;;;;11.90;11.10;;;;;;;8.65;100.00;93126.41;5070802;28;20201;-70
2023/05/05 02:10:12;;;;;;;12.20;11.00;;;;;;;8.83;100.00;93115.53;5053959;28;20310;-71
2023/05/05 02:12:39;;;;;;;11.87;11.07;;;;;;;8.99;100.00;93129.41;5070773;28;20236;-72
2023/05/05 02:15:06;;;;;;;11.73;10.93;;;;;;;8.91;100.00;93128.06;5070301;28;20233;-71
2023/05/05 02:17:32;;;;;;;13.23;12.03;;;;;;;9.00;100.00;93129.13;5070774;28;20189;-71
2023/05/05 02:20:00;;;;;;;11.83;10.93;;;;;;;8.74;100.00;93085.06;5070366;28;20221;-69
2023/05/05 02:22:26;;;;;;;11.63;10.87;;;;;;;9.11;100.00;93130.75;5070608;28;20181;-69
2023/05/05 02:24:53;;;;;;;11.73;11.07;;;;;;;9.13;100.00;93130.47;5069951;28;20248;-69
2023/05/05 02:27:21;;;;;;;11.40;10.80;;;;;;;9.23;100.00;93131.28;5070819;28;20248;-69
2023/05/05 02:29:56;;;;;;;11.20;10.00;;;;;;;9.27;100.00;93134.16;5070199;28;20225;-69
2023/05/05 02:32:30;;;;;;;11.87;11.17;;;;;;;9.46;100.00;93136.03;5070760;28;20213;-69
2023/05/05 02:34:59;;;;;;;11.40;10.70;;;;;;;9.56;100.00;93132.66;5051420;28;20224;-70
2023/05/05 02:37:28;;;;;;;11.33;10.43;;;;;;;9.58;100.00;93143.59;5070843;28;20217;-68
2023/05/05 02:40:00;;;;;;;12.20;11.40;;;;;;;9.60;100.00;93136.31;5069500;28;20249;-69
2023/05/05 02:42:31;;;;;;;11.00;10.30;;;;;;;9.24;100.00;93142.50;5070572;28;20189;-69
2023/05/05 02:45:00;;;;;;;11.47;10.73;;;;;;;9.35;100.00;93142.25;5069748;28;20281;-67
2023/05/05 02:47:36;;;;;;;11.97;11.00;;;;;;;9.46;100.00;93140.47;5070329;28;20169;-69
2023/05/05 02:50:05;;;;;;;10.67;9.97;;;;;;;9.38;100.00;93140.97;5069916;28;20235;-69
2023/05/05 02:52:32;;;;;;;12.97;11.97;;;;;;;9.28;100.00;93144.34;5069848;28;20290;-68
2023/05/05 02:54:58;;;;;;;12.77;11.87;;;;;;;9.22;100.00;93134.16;5069841;28;20251;-69
2023/05/05 02:57:31;;;;;;;12.47;11.67;;;;;;;9.17;100.00;93126.31;5069524;28;20215;-69
2023/05/05 03:00:15;;;;;;;12.90;12.00;;;;;;;9.47;100.00;93137.59;5081283;28;20284;-68
2023/05/05 03:03:16;;;;;;;12.83;12.03;;;;;;;9.58;100.00;93136.56;5069770;28;20169;-69
2023/05/05 03:05:50;;;;;;;11.50;10.70;;;;;;;9.59;100.00;93135.53;5068704;28;20240;-71
2023/05/05 03:08:19;;;;;;;11.20;10.50;;;;;;;9.59;100.00;93125.09;5052730;28;20188;-69
2023/05/05 03:11:05;;;;;;;13.20;12.30;;;;;;;9.28;100.00;93089.63;5069479;28;20229;-69
2023/05/05 03:13:34;;;;;;;12.50;11.53;;;;;;;9.63;100.00;93131.34;5069245;28;20239;-69
2023/05/05 03:16:05;;;;;;;12.43;11.53;;;;;;;9.48;100.00;93135.75;5069506;28;20221;-69
2023/05/05 03:18:33;;;;;;;13.83;12.73;;;;;;;9.41;100.00;93128.22;5069629;28;20180;-69
2023/05/05 03:21:07;;;;;;;11.90;11.20;;;;;;;9.22;100.00;93134.16;5069691;28;20243;-69
2023/05/05 03:23:33;;;;;;;12.43;11.53;;;;;;;9.37;100.00;93123.78;5069871;28;20209;-69
2023/05/05 03:25:59;;;;;;;11.53;10.83;;;;;;;9.32;100.00;93127.13;5069616;28;20319;-69
2023/05/05 03:28:24;;;;;;;12.70;11.80;;;;;;;9.39;100.00;93135.50;5069450;28;20189;-69
2023/05/05 03:30:50;;;;;;;12.80;11.77;;;;;;;9.45;100.00;93141.50;5068988;28;20255;-69
2023/05/05 03:33:15;;;;;;;11.57;10.77;;;;;;;9.43;100.00;93138.38;5069793;28;20213;-69
2023/05/05 03:35:41;;;;;;;11.67;10.87;;;;;;;9.29;100.00;93130.25;5069249;28;20225;-69
2023/05/05 03:38:06;;;;;;;12.27;11.17;;;;;;;9.34;100.00;93126.88;5055988;28;20182;-68
2023/05/05 03:40:32;;;;;;;12.60;11.90;;;;;;;9.62;100.00;93135.00;5069349;28;20224;-69
2023/05/05 03:42:57;;;;;;;10.97;10.17;;;;;;;9.40;100.00;93120.66;5070949;28;20185;-69
2023/05/05 03:45:23;;;;;;;10.20;9.70;;;;;;;9.16;100.00;93117.75;5071308;28;20711;-69
2023/05/05 03:47:48;;;;;;;10.83;10.03;;;;;;;9.21;100.00;93135.19;5073572;28;21000;-70
2023/05/05 03:50:14;;;;;;;11.30;10.60;;;;;;;9.23;100.00;93112.28;5073307;28;20236;-74
2023/05/05 03:52:39;;;;;;;10.73;10.13;;;;;;;9.22;100.00;93115.91;5070620;28;20220;-71
2023/05/05 03:55:05;;;;;;;11.03;10.43;;;;;;;8.31;100.00;92970.94;5054578;28;20232;-72
2023/05/05 03:57:32;;;;;;;10.97;10.37;;;;;;;9.36;100.00;93143.03;5072000;28;20183;-70
2023/05/05 03:59:58;;;;;;;11.43;10.83;;;;;;;9.54;100.00;93137.34;5072318;28;20233;-69
2023/05/05 04:02:23;;;;;;;10.73;10.13;;;;;;;9.68;100.00;93143.63;5071688;28;20196;-70
2023/05/05 04:04:49;;;;;;;11.40;10.60;;;;;;;9.48;100.00;93140.97;5071394;28;20229;-68
2023/05/05 04:07:14;;;;;;;11.03;10.53;;;;;;;9.69;100.00;93142.56;5071115;28;20228;-68
2023/05/05 04:09:43;;;;;;;11.23;10.47;;;;;;;9.94;100.00;93142.59;5070850;28;20244;-68
2023/05/05 04:12:12;;;;;;;11.00;10.40;;;;;;;10.05;99.30;93148.59;5067586;28;20209;-71
2023/05/05 04:14:38;;;;;;;11.07;10.47;;;;;;;9.80;99.96;93152.75;5070594;28;20221;-71
2023/05/05 04:17:03;;;;;;;10.37;9.87;;;;;;;10.03;99.94;93159.28;5070400;28;20178;-69
2023/05/05 04:19:32;;;;;;;11.87;11.17;;;;;;;9.96;100.00;93135.28;5069932;28;20186;-67
2023/05/05 04:21:58;;;;;;;11.47;10.73;;;;;;;10.21;100.00;93158.00;5070542;28;20197;-69
2023/05/05 04:24:24;;;;;;;11.27;10.37;;;;;;;10.25;100.00;93152.00;5070536;28;20208;-70
2023/05/05 04:26:53;;;;;;;10.90;10.30;;;;;;;10.40;99.48;93151.19;5070836;28;20185;-68
2023/05/05 04:29:18;;;;;;;10.97;10.27;;;;;;;10.45;98.32;93156.41;5070580;28;20186;-70
2023/05/05 04:31:44;;;;;;;11.67;10.80;;;;;;;10.56;96.61;93155.34;5071007;28;20335;-70
2023/05/05 04:34:09;;;;;;;11.53;10.83;;;;;;;10.60;94.47;93151.94;5070986;28;20256;-69
2023/05/05 04:36:35;;;;;;;11.20;10.50;;;;;;;10.62;94.62;93155.06;5071190;28;20251;-68
2023/05/05 04:39:01;;;;;;;12.20;11.17;;;;;;;10.59;94.83;93171.25;5072506;28;20238;-68
2023/05/05 04:41:26;;;;;;;12.90;11.83;;;;;;;10.35;94.55;93159.78;5071285;28;20226;-71
2023/05/05 04:43:52;;;;;;;12.67;11.57;;;;;;;10.47;96.10;93165.53;5072243;28;20186;-69
2023/05/05 04:46:18;;;;;;;13.40;12.50;;;;;;;10.23;98.04;93171.56;5071404;28;20210;-71
2023/05/05 04:48:43;;;;;;;14.23;13.23;;;;;;;10.14;99.65;93180.94;5071851;28;20196;-70
2023/05/05 04:51:09;;;;;;;14.07;13.00;;;;;;;10.06;100.00;93171.00;5071068;28;20296;-68
2023/05/05 04:53:34;;;;;;;15.10;13.70;;;;;;;10.10;100.00;93177.31;5071806;28;20239;-68
2023/05/05 04:56:00;;;;;;;14.83;13.63;;;;;;;10.23;100.00;93185.38;5070230;28;20218;-69
2023/05/05 04:58:26;;;;;;;14.40;12.97;;;;;;;10.19;99.90;93175.75;5070226;28;20181;-71
2023/05/05 05:00:51;;;;;;;14.47;13.30;;;;;;;10.20;99.98;93182.50;5070522;28;20277;-72
2023/05/05 05:03:17;;;;;;;14.50;13.40;;;;;;;9.89;100.00;93181.69;5070660;28;20189;-69
2023/05/05 05:05:42;;;;;;;15.00;13.77;;;;;;;10.15;100.00;93180.69;5070565;28;20216;-71
2023/05/05 05:08:07;;;;;;;14.53;13.37;;;;;;;9.63;100.00;93190.53;5070967;28;20252;-70
2023/05/05 05:10:34;;;;;;;14.27;13.27;;;;;;;9.82;100.00;93194.22;5070929;28;20293;-71
2023/05/05 05:13:00;;;;;;;12.87;11.77;;;;;;;9.64;100.00;93189.50;5071880;28;20256;-72
2023/05/05 05:15:25;;;;;;;11.13;10.43;;;;;;;9.99;98.70;93194.75;5071139;28;20221;-71
2023/05/05 05:17:51;;;;;;;13.43;12.43;;;;;;;9.83;99.42;93182.75;5071576;28;20274;-74
2023/05/05 05:20:16;;;;;;;13.67;12.83;;;;;;;10.18;100.00;93200.28;5071126;28;20236;-73
2023/05/05 05:22:41;;;;;;;12.73;11.87;;;;;;;10.39;98.89;93194.78;5070608;28;20182;-73
2023/05/05 05:25:07;;;;;;;12.03;11.23;;;;;;;10.54;97.71;93197.38;5070189;28;20248;-72
2023/05/05 05:27:32;;;;;;;11.43;10.73;;;;;;;10.70;97.61;93204.13;5070950;28;20181;-73
2023/05/05 05:29:58;;;;;;;12.23;11.40;;;;;;;10.39;97.49;93207.84;5070605;28;20695;-72
2023/05/05 05:32:23;;;;;;;11.87;11.13;;;;;;;10.33;97.21;93198.44;5070997;28;20210;-73
2023/05/05 05:34:48;;;;;;;11.10;10.40;;;;;;;10.52;96.56;93202.06;5069836;28;20225;-72
2023/05/05 05:37:14;;;;;;;11.67;11.00;;;;;;;10.57;95.34;93209.88;5070039;28;20186;-73
2023/05/05 05:39:40;;;;;;;11.17;10.67;;;;;;;10.50;95.63;93209.38;5070391;28;20253;-72
2023/05/05 05:42:05;;;;;;;10.77;10.17;;;;;;;10.17;97.03;93209.91;5070818;28;20232;-73
2023/05/05 05:44:31;;;;;;;10.57;10.07;;;;;;;9.85;95.65;93157.19;5069147;28;20272;-73
2023/05/05 05:46:57;;;;;;;10.87;9.97;;;;;;;10.46;95.46;93187.44;5070511;28;20186;-73
2023/05/05 05:49:22;;;;;;;9.57;9.17;;;;;;;10.61;95.05;93204.94;5069779;28;20173;-73
2023/05/05 05:51:47;;;;;;;10.20;9.40;;;;;;;10.81;93.06;93200.47;5070628;28;20179;-73
2023/05/05 05:54:13;;;;;;;9.73;9.03;;;;;;;11.16;93.14;93199.56;5071163;28;20231;-73
2023/05/05 05:56:38;;;;;;;8.87;8.47;;;;;;;11.49;90.57;93201.50;5070723;28;20228;-73
2023/05/05 05:59:06;;;;;;;9.70;9.23;;;;;;;11.18;89.46;93208.72;5071053;28;20193;-73
2023/05/05 06:01:33;;;;;;;10.13;9.63;;;;;;;11.46;88.99;93201.25;5070665;28;20561;-72
2023/05/05 06:03:59;;;;;;;9.67;9.20;;;;;;;11.13;88.72;93213.16;5070675;28;20191;-73
2023/05/05 06:06:25;;;;;;;9.90;9.40;;;;;;;11.08;89.17;93213.94;5070679;28;20229;-73
2023/05/05 06:08:50;;;;;;;10.40;9.80;;;;;;;11.56;87.82;93212.47;5071324;28;20238;-72
2023/05/05 06:11:15;;;;;;;9.83;9.23;;;;;;;11.81;85.98;93219.41;5070848;28;20222;-73
2023/05/05 06:13:41;;;;;;;9.93;9.43;;;;;;;11.71;85.43;93216.84;5070587;28;20205;-73
2023/05/05 06:16:06;;;;;;;9.80;9.30;;;;;;;11.51;86.39;93212.50;5053029;28;20233;-73
2023/05/05 06:18:32;;;;;;;10.80;10.20;;;;;;;11.55;88.88;93216.13;5070933;28;20242;-72
2023/05/05 06:20:57;;;;;;;10.87;10.30;;;;;;;12.08;84.79;93219.75;5070163;28;20211;-72
2023/05/05 06:23:23;;;;;;;10.73;10.03;;;;;;;11.54;85.99;93222.41;5070469;28;20420;-73
2023/05/05 06:25:48;;;;;;;10.10;9.50;;;;;;;12.05;84.73;93228.94;5070149;28;20305;-73
2023/05/05 06:28:13;;;;;;;9.87;9.33;;;;;;;11.87;83.66;93224.38;5070709;28;20184;-72
2023/05/05 06:30:39;;;;;;;10.77;10.20;;;;;;;11.55;85.29;93223.19;5070203;28;20221;-73
2023/05/05 06:33:04;;;;;;;10.23;9.73;;;;;;;12.20;82.94;93235.94;5070262;28;20239;-73
2023/05/05 06:35:30;;;;;;;9.70;9.20;;;;;;;12.39;83.55;93229.75;5070221;28;20229;-73
2023/05/05 06:37:56;;;;;;;9.97;9.37;;;;;;;12.86;79.06;93232.50;5070335;28;20193;-72
2023/05/05 06:40:21;;;;;;;9.97;9.43;;;;;;;12.98;78.17;93226.09;5070543;28;20243;-73
2023/05/05 06:42:47;;;;;;;10.63;9.80;;;;;;;13.06;79.58;93239.38;5073064;28;20193;-73
2023/05/05 06:45:12;;;;;;;9.27;8.77;;;;;;;12.18;82.50;93230.97;5070172;28;20263;-73
2023/05/05 06:47:37;;;;;;;11.80;10.90;;;;;;;12.11;83.49;93229.72;5070000;28;20189;-72
2023/05/05 06:50:03;;;;;;;9.87;9.27;;;;;;;11.91;83.60;93235.03;5070194;28;20229;-73
2023/05/05 06:52:28;;;;;;;10.40;9.90;;;;;;;12.10;84.06;93212.44;5069766;28;20235;-73
2023/05/05 06:54:54;;;;;;;10.23;9.63;;;;;;;11.84;85.65;93232.75;5069850;28;20232;-73
2023/05/05 06:57:19;;;;;;;10.50;9.63;;;;;;;11.83;87.58;93225.19;5070410;28;20197;-73
2023/05/05 06:59:45;;;;;;;10.03;9.37;;;;;;;12.50;83.83;93222.59;5069646;28;20229;-73
2023/05/05 07:02:10;;;;;;;11.17;10.37;;;;;;;12.93;82.07;93195.47;5062098;28;20190;-74
2023/05/05 07:04:36;;;;;;;9.73;9.23;;;;;;;12.28;83.12;93224.88;5069848;28;20240;-73
2023/05/05 07:07:01;;;;;;;9.77;9.20;;;;;;;12.99;80.93;93204.84;5070346;28;20203;-73
2023/05/05 07:09:26;;;;;;;9.57;9.07;;;;;;;13.14;80.97;93236.16;5069779;28;20196;-73
2023/05/05 07:11:52;;;;;;;9.50;8.97;;;;;;;13.70;77.46;93200.34;5069822;28;20177;-74
2023/05/05 07:14:17;;;;;;;10.30;9.73;;;;;;;13.83;75.93;93222.50;5069843;28;20197;-73
2023/05/05 07:16:42;;;;;;;9.70;9.30;;;;;;;13.95;75.51;93228.88;5069963;28;20187;-73
2023/05/05 07:19:08;;;;;;;9.33;8.90;;;;;;;13.78;75.11;93220.72;5063819;28;20191;-71
2023/05/05 07:21:33;;;;;;;10.67;10.07;;;;;;;13.68;75.26;93223.47;5068342;28;20225;-73
2023/05/05 07:23:59;;;;;;;9.70;9.10;;;;;;;13.80;74.80;93204.69;5069877;28;20189;-73
2023/05/05 07:26:25;;;;;;;9.90;9.30;;;;;;;14.08;74.67;93217.69;5069018;28;20227;-73
2023/05/05 07:28:51;;;;;;;9.23;8.73;;;;;;;14.26;74.68;93229.25;5085480;28;20209;-73
2023/05/05 07:31:18;;;;;;;9.23;8.73;;;;;;;14.15;74.24;93222.56;5069357;28;20302;-74
2023/05/05 07:33:44;;;;;;;10.27;9.67;;;;;;;14.46;73.39;93223.69;5068722;28;20217;-73
2023/05/05 07:36:10;;;;;;;10.00;9.40;;;;;;;14.26;72.98;93232.66;5069296;28;20339;-73
2023/05/05 07:38:35;;;;;;;10.70;10.00;;;;;;;13.76;78.68;93229.94;5068920;28;20220;-71
2023/05/05 07:41:01;;;;;;;10.40;9.87;;;;;;;14.35;72.97;93211.78;5069274;28;20221;-70
2023/05/05 07:43:26;;;;;;;10.30;9.80;;;;;;;14.74;72.23;93229.84;5069642;28;20262;-69
2023/05/05 07:45:52;;;;;;;9.10;8.60;;;;;;;14.41;73.99;93185.16;5068984;28;20339;-70
2023/05/05 07:48:17;;;;;;;9.47;8.87;;;;;;;14.81;76.55;93222.34;5069258;28;20197;-70
2023/05/05 07:50:43;;;;;;;10.07;9.50;;;;;;;15.69;69.99;93199.13;5068331;28;20251;-70
2023/05/05 07:53:08;;;;;;;10.27;9.67;;;;;;;15.83;69.54;93220.94;5068372;28;20224;-73
2023/05/05 07:55:33;;;;;;;11.50;10.17;;;;;;;15.92;72.62;93203.38;5068507;28;20209;-72
2023/05/05 07:57:59;;;;;;;9.17;8.73;;;;;;;16.05;69.45;93229.69;5069726;28;20173;-70
2023/05/05 08:00:24;;;;;;;10.60;9.90;;;;;;;15.42;71.20;93231.53;5068901;28;20236;-69
2023/05/05 08:02:50;;;;;;;10.13;9.27;;;;;;;15.21;71.11;93224.25;5069711;28;20177;-70
2023/05/05 08:05:15;;;;;;;10.33;9.77;;;;;;;14.95;71.72;93220.53;5068194;28;20225;-70
2023/05/05 08:07:41;;;;;;;10.43;9.77;;;;;;;14.74;73.68;93203.56;5068537;28;20181;-70
2023/05/05 08:10:09;;;;;;;11.67;10.67;;;;;;;14.44;78.14;93221.34;5064095;28;20213;-70
2023/05/05 08:12:35;;;;;;;11.43;10.60;;;;;;;14.57;77.05;93226.97;5068229;28;20216;-71
2023/05/05 08:15:00;;;;;;;10.37;9.77;;;;;;;14.07;76.07;93221.34;5067658;28;20252;-70
2023/05/05 08:17:25;;;;;;;10.70;9.73;;;;;;;14.49;76.41;93221.28;5068046;28;20185;-70
2023/05/05 08:19:51;;;;;;;11.63;10.87;;;;;;;14.39;74.31;93218.81;5063853;28;20221;-71
2023/05/05 08:22:17;;;;;;;11.10;10.43;;;;;;;14.26;78.15;93219.53;5058803;28;20193;-71
2023/05/05 08:24:42;;;;;;;11.67;10.60;;;;;;;14.77;74.65;93219.50;5067257;28;20298;-70
2023/05/05 08:27:08;;;;;;;10.87;9.93;;;;;;;14.56;72.07;93209.63;5067644;28;20249;-70
2023/05/05 08:29:33;;;;;;;10.97;10.17;;;;;;;14.45;73.06;93212.41;5067269;28;20188;-72
2023/05/05 08:31:58;;;;;;;10.47;9.90;;;;;;;14.46;72.61;93210.56;5068888;28;20849;-72
2023/05/05 08:34:24;;;;;;;12.03;10.93;;;;;;;14.36;70.38;93208.88;5070910;28;20221;-70
2023/05/05 08:36:49;;;;;;;10.43;9.80;;;;;;;13.78;73.99;93181.34;5071470;28;20177;-72
2023/05/05 08:39:15;;;;;;;14.50;10.17;;;;;;;14.34;72.77;93204.97;5071672;28;20219;-70
2023/05/05 08:41:41;;;;;;;10.80;9.97;;;;;;;14.70;70.71;93210.44;5071069;28;20228;-70
2023/05/05 08:44:07;;;;;;;9.93;9.40;;;;;;;14.63;69.95;93210.03;5071577;28;20204;-72
2023/05/05 08:46:35;;;;;;;10.80;10.03;;;;;;;14.39;72.35;93197.81;5068887;28;20218;-71
2023/05/05 08:49:02;;;;;;;10.13;9.53;;;;;;;14.72;75.47;93203.84;5071386;28;20178;-71
2023/05/05 08:51:31;;;;;;;11.07;10.43;;;;;;;14.59;72.82;93203.78;5070525;28;20223;-72
2023/05/05 08:54:01;;;;;;;11.60;10.53;;;;;;;14.96;69.72;93206.31;5071532;28;20231;-71
2023/05/05 08:56:38;;;;;;;11.23;10.43;;;;;;;15.09;67.77;93208.16;5070521;28;20213;-71
2023/05/05 08:59:04;;;;;;;10.37;9.67;;;;;;;15.04;67.78;93205.63;5070848;28;20211;-71
2023/05/05 09:01:32;;;;;;;10.10;9.50;;;;;;;15.18;69.75;93211.69;5071029;28;20285;-71
2023/05/05 09:03:58;;;;;;;9.77;9.17;;;;;;;14.81;69.66;93211.81;5069903;28;20197;-72
2023/05/05 09:06:26;;;;;;;9.50;8.80;;;;;;;15.51;70.12;93213.97;5069916;28;20331;-69
2023/05/05 09:08:52;;;;;;;9.07;8.67;;;;;;;15.23;65.97;93195.81;5071054;28;20212;-69
2023/05/05 09:11:17;;;;;;;10.13;9.53;;;;;;;14.58;65.89;93189.09;5070459;28;20229;-69
2023/05/05 09:13:43;;;;;;;10.07;9.53;;;;;;;14.97;67.13;93186.84;5069915;28;20304;-70
2023/05/05 09:16:09;;;;;;;9.67;9.07;;;;;;;15.43;67.81;93205.97;5070239;28;20256;-70
2023/05/05 09:18:36;;;;;;;8.93;8.53;;;;;;;15.54;64.26;93207.34;5071076;28;20201;-71
2023/05/05 09:21:18;;;;;;;9.13;8.70;;;;;;;15.31;65.71;93188.03;5070225;28;20217;-71
2023/05/05 09:24:10;;;;;;;12.27;9.03;;;;;;;16.05;65.38;93197.28;5070610;28;20216;-71
2023/05/05 09:26:37;;;;;;;9.63;9.13;;;;;;;16.80;61.04;93192.91;5065040;28;20241;-71
2023/05/05 09:29:03;;;;;;;9.50;9.00;;;;;;;16.00;65.54;93195.56;5071028;28;20178;-73
2023/05/05 09:31:30;;;;;;;9.53;9.03;;;;;;;15.77;65.08;93193.16;5070260;28;20252;-72
2023/05/05 09:33:59;;;;;;;9.23;8.83;;;;;;;15.97;64.90;93184.81;5053155;28;20221;-72
2023/05/05 09:36:49;;;;;;;9.83;9.33;;;;;;;15.71;68.90;93189.88;5070125;28;21129;-72
2023/05/05 09:39:17;;;;;;;10.23;9.60;;;;;;;15.85;69.41;93192.47;5069653;28;20192;-71
2023/05/05 09:41:43;;;;;;;8.60;8.17;;;;;;;16.28;66.03;93201.50;5069860;28;20278;-73
2023/05/05 09:44:10;;;;;;;8.17;7.77;;;;;;;15.85;66.55;93190.63;5069770;28;20190;-72
2023/05/05 09:46:35;;;;;;;9.90;9.30;;;;;;;16.24;64.03;93194.50;5069223;28;20236;-72
2023/05/05 09:49:16;;;;;;;9.00;8.47;;;;;;;15.64;67.98;93194.75;5069666;28;20185;-73
2023/05/05 09:51:42;;;;;;;9.90;9.40;;;;;;;15.63;65.65;93189.78;5066645;28;20324;-73
2023/05/05 09:54:08;;;;;;;9.97;9.40;;;;;;;16.45;65.11;93190.38;5069944;28;20194;-71
2023/05/05 09:56:40;;;;;;;9.83;9.33;;;;;;;16.11;63.16;93193.47;5069393;28;20304;-72
2023/05/05 09:59:09;;;;;;;10.20;9.60;;;;;;;16.42;62.32;93175.13;5069992;28;20192;-71
2023/05/05 10:01:35;;;;;;;9.83;9.23;;;;;;;16.99;61.67;93190.06;5069019;28;20225;-68
2023/05/05 10:04:00;;;;;;;10.30;9.70;;;;;;;16.29;67.21;93189.13;5073034;28;20222;-76
2023/05/05 10:06:58;;;;;;;9.93;9.03;;;;;;;16.43;64.21;93181.94;5050828;28;20256;-72
2023/05/05 10:09:25;;;;;;;9.47;8.83;;;;;;;16.44;63.78;93186.94;5032830;28;20197;-71
2023/05/05 10:11:51;;;;;;;9.63;8.93;;;;;;;16.39;63.64;93191.53;5067916;28;20197;-73
2023/05/05 10:14:17;;;;;;;9.23;8.73;;;;;;;16.23;63.99;93177.94;5066446;28;20197;-74
2023/05/05 10:16:49;;;;;;;8.73;8.00;;;;;;;16.51;65.45;93186.53;5067248;28;20213;-71
2023/05/05 10:19:17;;;;;;;8.83;8.43;;;;;;;16.90;64.30;93176.06;5066834;28;20180;-72
2023/05/05 10:22:02;;;;;;;10.57;9.87;;;;;;;15.76;66.70;93173.97;5068052;28;20209;-71
2023/05/05 10:24:39;;;;;;;9.87;9.27;;;;;;;16.21;66.41;93152.94;5068138;28;20196;-75
2023/05/05 10:27:17;;;;;;;11.00;10.10;;;;;;;16.54;67.38;93178.81;5063238;28;20191;-70
2023/05/05 10:30:05;;;;;;;9.93;9.23;;;;;;;16.23;65.90;93185.03;5062991;28;20225;-70
2023/05/05 10:32:42;;;;;;;10.73;10.10;;;;;;;16.08;65.71;93174.88;5061212;28;20225;-71
2023/05/05 10:35:08;;;;;;;9.17;8.77;;;;;;;16.39;67.18;93170.44;5046436;28;20236;-71
2023/05/05 10:37:36;;;;;;;9.20;8.70;;;;;;;16.14;65.59;93163.88;5048679;28;20169;-71
2023/05/05 10:40:02;;;;;;;9.83;9.23;;;;;;;15.95;66.52;93165.94;5049233;28;20213;-69
2023/05/05 10:42:27;;;;;;;9.83;9.17;;;;;;;16.45;63.80;93169.28;5048386;28;20225;-72
2023/05/05 10:44:53;;;;;;;9.47;8.83;;;;;;;16.88;60.77;93163.16;5044130;28;20226;-70
2023/05/05 10:47:21;;;;;;;9.53;9.03;;;;;;;16.80;63.28;93156.00;5046153;28;20186;-70
2023/05/05 10:49:56;;;;;;;8.43;7.93;;;;;;;16.87;63.57;93177.41;5047198;28;20226;-69
2023/05/05 10:52:40;;;;;;;9.63;9.10;;;;;;;16.98;61.40;93170.81;5048187;28;20209;-74
2023/05/05 10:55:21;;;;;;;9.80;9.20;;;;;;;16.72;62.08;93171.75;5042150;28;20237;-69
2023/05/05 10:57:51;;;;;;;9.90;9.40;;;;;;;16.62;63.59;93170.16;5046532;28;20180;-69
2023/05/05 11:00:39;;;;;;;9.17;8.77;;;;;;;16.40;63.50;93164.88;5047639;28;20226;-71
2023/05/05 11:03:16;;;;;;;9.97;9.23;;;;;;;16.62;63.42;93166.75;5047292;28;21753;-70
2023/05/05 11:06:04;;;;;;;9.47;8.80;;;;;;;16.37;63.88;93170.75;5047226;28;20225;-70
2023/05/05 11:08:32;;;;;;;11.43;10.83;;;;;;;16.33;64.32;93172.41;5047476;28;20236;-76
2023/05/05 11:10:58;;;;;;;9.53;9.03;;;;;;;16.19;65.01;93157.75;5046693;28;20268;-76
2023/05/05 11:13:24;;;;;;;10.00;9.50;;;;;;;15.65;67.95;93158.66;5047922;28;20221;-76
2023/05/05 11:15:52;;;;;;;10.47;9.87;;;;;;;15.52;66.73;93156.84;5046928;28;20230;-76
2023/05/05 11:18:35;;;;;;;9.73;9.23;;;;;;;15.40;67.73;93148.66;5048471;28;20189;-76
2023/05/05 11:21:02;;;;;;;10.03;9.43;;;;;;;15.52;67.29;93159.47;5043881;28;20225;-76
2023/05/05 11:23:29;;;;;;;9.83;9.33;;;;;;;15.53;68.05;93156.53;5047858;28;20213;-76
2023/05/05 11:25:56;;;;;;;9.40;8.90;;;;;;;15.53;66.60;93147.88;5048845;28;20256;-76
2023/05/05 11:28:31;;;;;;;9.60;9.00;;;;;;;15.88;64.01;93147.91;5049053;28;20197;-75